Sinsinawa, WI

1:43 AM CDT on March 30, 2017 (GMT -0500)
Eagle Valley | | Change Station

Elev 837 ft 42.54 °N, 90.66 °W | Updated 3 minutes ago

Rain
Rain
40.3 °F
Feels Like 40 °F
N
3.0
Wind Variable Wind from SSW
Gusts 5.0 mph

Today
High -- | Low -- °F
--% Chance of Precip.
Yesterday
High -- | Low -- °F
Precip. -- in
Pressure 29.90 in
Visibility 4.0 miles
Clouds Overcast 900 ft
Windchill 40 °F
Dew Point 38 °F
Humidity 93%
Rainfall 0.12 in
Snow Depth Not available.
6:47 AM 7:26 PM
Waxing Crescent, 7% visible
SPECI KDBQ 300631Z AUTO 06016KT 4SM RA BR OVC009 04/03 A2990 RMK AO2 PK WND 08026/0604 CIG 006V012 P0010 T00440033
Pressure 29.90 in
Visibility 4.0 miles
Clouds Overcast 900 ft
Windchill 40 °F
Dew Point 38 °F
Humidity 93%
Rainfall 0.12 in
Snow Depth Not available.
6:47 AM 7:26 PM
Waxing Crescent, 7% visible
SPECI KDBQ 300631Z AUTO 06016KT 4SM RA BR OVC009 04/03 A2990 RMK AO2 PK WND 08026/0604 CIG 006V012 P0010 T00440033

Get Severe Weather Alerts

Thanks for signing up!

Be on the lookout for a verification email in your inbox.

You'll start receiving the daily forecast at 8 AM.

×

10-Day Weather Forecast

Almanac

Astronomy

Mar. 30, 2017 Rise Set
Actual Time
Civil Twilight
Nautical Twilight
Astronomical Twilight
Moon
Length of Visible Light
Length of Day
Tomorrow will be .
, % of the Moon is Illuminated

Today's Extremes

State Highs State Lows

Community

WunderPhotos

Upload Photos

1,962,540 photos uploaded!

WunderBlog® & News

Nearby

Air Quality

  Air Quality AQ Index Pollutant
Not available.

Snow Depth

Station Depth Elevation

Earthquake Activity

City Distance Mag. Time & Date
Minimum magnitude displayed is 2.5.

Earthquake Activity

City Distance Mag. Time & Date
Minimum magnitude displayed is 2.5.

Coastal Water Temperatures

Place Temperature

Stations

Nearby Weather Stations

Station Location Temp. Windchill Dew Point Humidity Wind Precip. Elev Updated Type
                   

Watches & Warnings

There are currently no watches in effect.